sensor_id;sensor_type;location;lat;lon;timestamp;P1;durP1;ratioP1;P2;durP2;ratioP2
12024;SDS011;6073;53.230;10.444;2023-09-30T00:00:56;11.82;;;3.28;;
12024;SDS011;6073;53.230;10.444;2023-09-30T00:03:22;9.90;;;3.15;;
12024;SDS011;6073;53.230;10.444;2023-09-30T00:05:48;7.93;;;3.25;;
12024;SDS011;6073;53.230;10.444;2023-09-30T00:08:13;9.95;;;3.08;;
12024;SDS011;6073;53.230;10.444;2023-09-30T00:10:39;10.70;;;3.75;;
12024;SDS011;6073;53.230;10.444;2023-09-30T00:13:04;8.20;;;3.88;;
12024;SDS011;6073;53.230;10.444;2023-09-30T00:15:31;8.77;;;3.70;;
12024;SDS011;6073;53.230;10.444;2023-09-30T00:17:57;7.30;;;3.50;;
12024;SDS011;6073;53.230;10.444;2023-09-30T00:20:23;9.85;;;3.33;;
12024;SDS011;6073;53.230;10.444;2023-09-30T00:22:49;8.75;;;3.50;;
12024;SDS011;6073;53.230;10.444;2023-09-30T00:25:14;9.07;;;3.38;;
12024;SDS011;6073;53.230;10.444;2023-09-30T00:27:40;8.60;;;3.67;;
12024;SDS011;6073;53.230;10.444;2023-09-30T00:30:06;10.98;;;3.92;;
12024;SDS011;6073;53.230;10.444;2023-09-30T00:32:32;8.10;;;3.70;;
12024;SDS011;6073;53.230;10.444;2023-09-30T00:34:58;6.68;;;2.70;;
12024;SDS011;6073;53.230;10.444;2023-09-30T00:37:26;9.23;;;3.65;;
12024;SDS011;6073;53.230;10.444;2023-09-30T00:39:52;8.18;;;3.90;;
12024;SDS011;6073;53.230;10.444;2023-09-30T00:42:18;10.27;;;3.03;;
12024;SDS011;6073;53.230;10.444;2023-09-30T00:44:45;11.02;;;3.38;;
12024;SDS011;6073;53.230;10.444;2023-09-30T00:47:11;11.43;;;3.40;;
12024;SDS011;6073;53.230;10.444;2023-09-30T00:49:37;9.23;;;3.33;;
12024;SDS011;6073;53.230;10.444;2023-09-30T00:52:03;12.40;;;3.90;;
12024;SDS011;6073;53.230;10.444;2023-09-30T00:54:29;11.90;;;3.45;;
12024;SDS011;6073;53.230;10.444;2023-09-30T00:56:55;10.00;;;3.67;;
12024;SDS011;6073;53.230;10.444;2023-09-30T00:59:22;8.77;;;3.15;;
12024;SDS011;6073;53.230;10.444;2023-09-30T01:01:50;10.07;;;3.60;;
12024;SDS011;6073;53.230;10.444;2023-09-30T01:04:16;7.25;;;3.30;;
12024;SDS011;6073;53.230;10.444;2023-09-30T01:06:42;9.02;;;3.30;;
12024;SDS011;6073;53.230;10.444;2023-09-30T01:09:08;11.93;;;3.45;;
12024;SDS011;6073;53.230;10.444;2023-09-30T01:11:37;9.45;;;3.75;;
12024;SDS011;6073;53.230;10.444;2023-09-30T01:14:05;5.55;;;3.45;;
12024;SDS011;6073;53.230;10.444;2023-09-30T01:16:51;12.43;;;3.65;;
12024;SDS011;6073;53.230;10.444;2023-09-30T01:19:17;11.02;;;3.90;;
12024;SDS011;6073;53.230;10.444;2023-09-30T01:21:43;9.70;;;3.75;;
12024;SDS011;6073;53.230;10.444;2023-09-30T01:24:13;9.20;;;4.05;;
12024;SDS011;6073;53.230;10.444;2023-09-30T01:26:41;15.70;;;4.25;;
12024;SDS011;6073;53.230;10.444;2023-09-30T01:29:07;11.18;;;4.25;;
12024;SDS011;6073;53.230;10.444;2023-09-30T01:31:35;12.52;;;4.30;;
12024;SDS011;6073;53.230;10.444;2023-09-30T01:34:01;9.13;;;3.70;;
12024;SDS011;6073;53.230;10.444;2023-09-30T01:36:27;12.43;;;4.30;;
12024;SDS011;6073;53.230;10.444;2023-09-30T01:38:53;8.65;;;3.97;;
12024;SDS011;6073;53.230;10.444;2023-09-30T01:41:19;12.63;;;4.00;;
12024;SDS011;6073;53.230;10.444;2023-09-30T01:43:44;12.98;;;4.20;;
12024;SDS011;6073;53.230;10.444;2023-09-30T01:46:10;11.40;;;4.00;;
12024;SDS011;6073;53.230;10.444;2023-09-30T01:48:35;14.32;;;4.13;;
12024;SDS011;6073;53.230;10.444;2023-09-30T01:51:01;8.35;;;4.20;;
12024;SDS011;6073;53.230;10.444;2023-09-30T01:53:26;15.07;;;4.03;;
12024;SDS011;6073;53.230;10.444;2023-09-30T01:55:52;10.88;;;3.85;;
12024;SDS011;6073;53.230;10.444;2023-09-30T01:58:17;12.98;;;4.25;;
12024;SDS011;6073;53.230;10.444;2023-09-30T02:00:43;10.52;;;3.95;;
12024;SDS011;6073;53.230;10.444;2023-09-30T02:03:09;9.55;;;3.28;;
12024;SDS011;6073;53.230;10.444;2023-09-30T02:05:34;12.10;;;4.25;;
12024;SDS011;6073;53.230;10.444;2023-09-30T02:08:01;8.48;;;4.38;;
12024;SDS011;6073;53.230;10.444;2023-09-30T02:10:31;9.57;;;3.47;;
12024;SDS011;6073;53.230;10.444;2023-09-30T02:12:58;13.52;;;4.13;;
12024;SDS011;6073;53.230;10.444;2023-09-30T02:15:24;9.63;;;3.58;;
12024;SDS011;6073;53.230;10.444;2023-09-30T02:17:50;9.57;;;3.40;;
12024;SDS011;6073;53.230;10.444;2023-09-30T02:20:16;10.10;;;3.95;;
12024;SDS011;6073;53.230;10.444;2023-09-30T02:22:44;11.18;;;3.58;;
12024;SDS011;6073;53.230;10.444;2023-09-30T02:25:11;9.80;;;3.97;;
12024;SDS011;6073;53.230;10.444;2023-09-30T02:27:37;15.18;;;4.38;;
12024;SDS011;6073;53.230;10.444;2023-09-30T02:30:06;8.13;;;4.03;;
12024;SDS011;6073;53.230;10.444;2023-09-30T02:32:33;12.85;;;4.57;;
12024;SDS011;6073;53.230;10.444;2023-09-30T02:34:58;10.60;;;3.38;;
12024;SDS011;6073;53.230;10.444;2023-09-30T02:37:24;12.02;;;4.18;;
12024;SDS011;6073;53.230;10.444;2023-09-30T02:39:50;16.77;;;4.40;;
12024;SDS011;6073;53.230;10.444;2023-09-30T02:42:16;11.20;;;4.57;;
12024;SDS011;6073;53.230;10.444;2023-09-30T02:44:41;10.68;;;4.28;;
12024;SDS011;6073;53.230;10.444;2023-09-30T02:47:07;11.45;;;4.68;;
12024;SDS011;6073;53.230;10.444;2023-09-30T02:49:34;13.50;;;4.47;;
12024;SDS011;6073;53.230;10.444;2023-09-30T02:51:59;12.60;;;4.80;;
12024;SDS011;6073;53.230;10.444;2023-09-30T02:54:25;17.90;;;5.53;;
12024;SDS011;6073;53.230;10.444;2023-09-30T02:56:51;10.15;;;4.30;;
12024;SDS011;6073;53.230;10.444;2023-09-30T02:59:17;13.77;;;4.22;;
12024;SDS011;6073;53.230;10.444;2023-09-30T03:01:43;14.60;;;4.22;;
12024;SDS011;6073;53.230;10.444;2023-09-30T03:04:09;15.13;;;5.28;;
12024;SDS011;6073;53.230;10.444;2023-09-30T03:06:37;11.50;;;4.38;;
12024;SDS011;6073;53.230;10.444;2023-09-30T03:09:03;13.32;;;4.68;;
12024;SDS011;6073;53.230;10.444;2023-09-30T03:11:30;14.07;;;4.10;;
12024;SDS011;6073;53.230;10.444;2023-09-30T03:13:56;10.18;;;4.07;;
12024;SDS011;6073;53.230;10.444;2023-09-30T03:16:22;15.23;;;4.03;;
12024;SDS011;6073;53.230;10.444;2023-09-30T03:18:49;15.23;;;4.20;;
12024;SDS011;6073;53.230;10.444;2023-09-30T03:21:15;15.50;;;4.85;;
12024;SDS011;6073;53.230;10.444;2023-09-30T03:23:41;13.52;;;4.40;;
12024;SDS011;6073;53.230;10.444;2023-09-30T03:26:07;11.90;;;4.57;;
12024;SDS011;6073;53.230;10.444;2023-09-30T03:28:35;12.32;;;4.32;;
12024;SDS011;6073;53.230;10.444;2023-09-30T03:31:02;10.35;;;4.63;;
12024;SDS011;6073;53.230;10.444;2023-09-30T03:33:29;10.95;;;4.05;;
12024;SDS011;6073;53.230;10.444;2023-09-30T03:35:58;8.98;;;4.20;;
12024;SDS011;6073;53.230;10.444;2023-09-30T03:38:25;13.48;;;4.65;;
12024;SDS011;6073;53.230;10.444;2023-09-30T03:40:51;14.65;;;5.32;;
12024;SDS011;6073;53.230;10.444;2023-09-30T03:43:19;10.50;;;4.03;;
12024;SDS011;6073;53.230;10.444;2023-09-30T03:45:46;6.45;;;3.60;;
12024;SDS011;6073;53.230;10.444;2023-09-30T03:48:11;16.30;;;4.38;;
12024;SDS011;6073;53.230;10.444;2023-09-30T03:50:37;13.52;;;5.07;;
12024;SDS011;6073;53.230;10.444;2023-09-30T03:53:03;13.30;;;4.88;;
12024;SDS011;6073;53.230;10.444;2023-09-30T03:55:30;12.25;;;4.57;;
12024;SDS011;6073;53.230;10.444;2023-09-30T03:57:56;12.77;;;4.53;;
12024;SDS011;6073;53.230;10.444;2023-09-30T04:00:23;15.23;;;4.45;;
12024;SDS011;6073;53.230;10.444;2023-09-30T04:02:49;14.60;;;4.80;;
12024;SDS011;6073;53.230;10.444;2023-09-30T04:05:19;14.68;;;4.60;;
12024;SDS011;6073;53.230;10.444;2023-09-30T04:07:58;13.85;;;4.13;;
12024;SDS011;6073;53.230;10.444;2023-09-30T04:10:23;12.05;;;4.05;;
12024;SDS011;6073;53.230;10.444;2023-09-30T04:12:50;14.25;;;5.57;;
12024;SDS011;6073;53.230;10.444;2023-09-30T04:15:17;13.95;;;4.10;;
12024;SDS011;6073;53.230;10.444;2023-09-30T04:17:43;13.73;;;4.88;;
12024;SDS011;6073;53.230;10.444;2023-09-30T04:20:09;9.57;;;4.72;;
12024;SDS011;6073;53.230;10.444;2023-09-30T04:22:41;8.82;;;4.20;;
12024;SDS011;6073;53.230;10.444;2023-09-30T04:25:06;15.60;;;4.70;;
12024;SDS011;6073;53.230;10.444;2023-09-30T04:27:36;16.15;;;5.50;;
12024;SDS011;6073;53.230;10.444;2023-09-30T04:30:02;14.45;;;5.45;;
12024;SDS011;6073;53.230;10.444;2023-09-30T04:32:33;11.63;;;4.53;;
12024;SDS011;6073;53.230;10.444;2023-09-30T04:35:03;12.30;;;4.63;;
12024;SDS011;6073;53.230;10.444;2023-09-30T04:37:29;11.25;;;4.15;;
12024;SDS011;6073;53.230;10.444;2023-09-30T04:39:55;11.65;;;5.40;;
12024;SDS011;6073;53.230;10.444;2023-09-30T04:42:21;9.50;;;4.32;;
12024;SDS011;6073;53.230;10.444;2023-09-30T04:44:46;14.45;;;4.50;;
12024;SDS011;6073;53.230;10.444;2023-09-30T04:47:12;20.02;;;5.15;;
12024;SDS011;6073;53.230;10.444;2023-09-30T04:49:37;10.13;;;4.47;;
12024;SDS011;6073;53.230;10.444;2023-09-30T04:52:03;16.20;;;5.88;;
12024;SDS011;6073;53.230;10.444;2023-09-30T04:54:32;10.70;;;4.20;;
12024;SDS011;6073;53.230;10.444;2023-09-30T04:57:00;12.55;;;4.25;;
12024;SDS011;6073;53.230;10.444;2023-09-30T04:59:26;15.20;;;6.03;;
12024;SDS011;6073;53.230;10.444;2023-09-30T05:01:53;18.08;;;5.15;;
12024;SDS011;6073;53.230;10.444;2023-09-30T05:04:19;11.20;;;4.78;;
12024;SDS011;6073;53.230;10.444;2023-09-30T05:06:45;10.45;;;4.10;;
12024;SDS011;6073;53.230;10.444;2023-09-30T05:09:10;9.77;;;3.83;;
12024;SDS011;6073;53.230;10.444;2023-09-30T05:11:37;10.65;;;4.32;;
12024;SDS011;6073;53.230;10.444;2023-09-30T05:14:03;9.27;;;4.00;;
12024;SDS011;6073;53.230;10.444;2023-09-30T05:16:30;14.40;;;4.22;;
12024;SDS011;6073;53.230;10.444;2023-09-30T05:18:56;11.10;;;4.35;;
12024;SDS011;6073;53.230;10.444;2023-09-30T05:21:22;13.13;;;4.75;;
12024;SDS011;6073;53.230;10.444;2023-09-30T05:23:48;9.52;;;4.45;;
12024;SDS011;6073;53.230;10.444;2023-09-30T05:26:14;12.88;;;4.57;;
12024;SDS011;6073;53.230;10.444;2023-09-30T05:28:40;13.30;;;4.50;;
12024;SDS011;6073;53.230;10.444;2023-09-30T05:31:06;11.70;;;4.60;;
12024;SDS011;6073;53.230;10.444;2023-09-30T05:33:32;10.65;;;5.03;;
12024;SDS011;6073;53.230;10.444;2023-09-30T05:35:58;10.25;;;4.50;;
12024;SDS011;6073;53.230;10.444;2023-09-30T05:38:24;11.80;;;4.15;;
12024;SDS011;6073;53.230;10.444;2023-09-30T05:40:51;9.57;;;4.65;;
12024;SDS011;6073;53.230;10.444;2023-09-30T05:43:17;13.40;;;4.72;;
12024;SDS011;6073;53.230;10.444;2023-09-30T05:45:42;17.63;;;4.75;;
12024;SDS011;6073;53.230;10.444;2023-09-30T05:48:14;11.55;;;4.00;;
12024;SDS011;6073;53.230;10.444;2023-09-30T05:50:41;12.85;;;4.15;;
12024;SDS011;6073;53.230;10.444;2023-09-30T05:53:07;9.35;;;4.50;;
12024;SDS011;6073;53.230;10.444;2023-09-30T05:55:35;14.27;;;4.10;;
12024;SDS011;6073;53.230;10.444;2023-09-30T05:58:02;11.35;;;4.40;;
12024;SDS011;6073;53.230;10.444;2023-09-30T06:00:27;12.25;;;4.35;;
12024;SDS011;6073;53.230;10.444;2023-09-30T06:02:55;15.50;;;4.20;;
12024;SDS011;6073;53.230;10.444;2023-09-30T06:05:22;12.60;;;4.32;;
12024;SDS011;6073;53.230;10.444;2023-09-30T06:07:48;9.35;;;4.38;;
12024;SDS011;6073;53.230;10.444;2023-09-30T06:10:14;12.30;;;4.50;;
12024;SDS011;6073;53.230;10.444;2023-09-30T06:12:52;14.07;;;4.80;;
12024;SDS011;6073;53.230;10.444;2023-09-30T06:15:22;12.82;;;4.95;;
12024;SDS011;6073;53.230;10.444;2023-09-30T06:17:51;11.02;;;4.10;;
12024;SDS011;6073;53.230;10.444;2023-09-30T06:20:17;12.30;;;4.10;;
12024;SDS011;6073;53.230;10.444;2023-09-30T06:22:43;14.43;;;4.68;;
12024;SDS011;6073;53.230;10.444;2023-09-30T06:25:10;15.40;;;4.53;;
12024;SDS011;6073;53.230;10.444;2023-09-30T06:27:41;13.82;;;4.13;;
12024;SDS011;6073;53.230;10.444;2023-09-30T06:30:07;15.00;;;4.55;;
12024;SDS011;6073;53.230;10.444;2023-09-30T06:32:34;8.23;;;4.47;;
12024;SDS011;6073;53.230;10.444;2023-09-30T06:35:00;13.27;;;4.50;;
12024;SDS011;6073;53.230;10.444;2023-09-30T06:37:27;12.38;;;4.18;;
12024;SDS011;6073;53.230;10.444;2023-09-30T06:39:54;10.05;;;4.03;;
12024;SDS011;6073;53.230;10.444;2023-09-30T06:42:20;10.63;;;4.75;;
12024;SDS011;6073;53.230;10.444;2023-09-30T06:44:46;9.77;;;4.15;;
12024;SDS011;6073;53.230;10.444;2023-09-30T06:47:12;12.10;;;3.80;;
12024;SDS011;6073;53.230;10.444;2023-09-30T06:49:37;10.70;;;4.38;;
12024;SDS011;6073;53.230;10.444;2023-09-30T06:52:04;11.27;;;4.13;;
12024;SDS011;6073;53.230;10.444;2023-09-30T06:54:30;12.43;;;4.15;;
12024;SDS011;6073;53.230;10.444;2023-09-30T06:56:56;8.55;;;4.30;;
12024;SDS011;6073;53.230;10.444;2023-09-30T06:59:22;8.18;;;4.05;;
12024;SDS011;6073;53.230;10.444;2023-09-30T07:01:47;11.13;;;3.65;;
12024;SDS011;6073;53.230;10.444;2023-09-30T07:04:13;10.77;;;4.03;;
12024;SDS011;6073;53.230;10.444;2023-09-30T07:06:38;8.35;;;3.33;;
12024;SDS011;6073;53.230;10.444;2023-09-30T07:09:04;9.55;;;3.85;;
12024;SDS011;6073;53.230;10.444;2023-09-30T07:11:30;9.65;;;4.05;;
12024;SDS011;6073;53.230;10.444;2023-09-30T07:13:59;10.10;;;3.80;;
12024;SDS011;6073;53.230;10.444;2023-09-30T07:16:25;7.18;;;3.40;;
12024;SDS011;6073;53.230;10.444;2023-09-30T07:18:51;8.20;;;3.85;;
12024;SDS011;6073;53.230;10.444;2023-09-30T07:21:16;9.88;;;3.42;;
12024;SDS011;6073;53.230;10.444;2023-09-30T07:23:42;12.85;;;3.38;;
12024;SDS011;6073;53.230;10.444;2023-09-30T07:26:07;10.23;;;3.55;;
12024;SDS011;6073;53.230;10.444;2023-09-30T07:28:33;7.78;;;3.70;;
12024;SDS011;6073;53.230;10.444;2023-09-30T07:30:59;9.10;;;2.95;;
12024;SDS011;6073;53.230;10.444;2023-09-30T07:33:24;12.30;;;3.60;;
12024;SDS011;6073;53.230;10.444;2023-09-30T07:35:50;9.02;;;3.03;;
12024;SDS011;6073;53.230;10.444;2023-09-30T07:38:15;7.15;;;3.03;;
12024;SDS011;6073;53.230;10.444;2023-09-30T07:40:41;7.90;;;3.25;;
12024;SDS011;6073;53.230;10.444;2023-09-30T07:43:07;8.25;;;3.47;;
12024;SDS011;6073;53.230;10.444;2023-09-30T07:45:33;7.82;;;2.80;;
12024;SDS011;6073;53.230;10.444;2023-09-30T07:47:59;10.20;;;3.05;;
12024;SDS011;6073;53.230;10.444;2023-09-30T07:50:24;10.05;;;2.58;;
12024;SDS011;6073;53.230;10.444;2023-09-30T07:52:50;7.03;;;3.10;;
12024;SDS011;6073;53.230;10.444;2023-09-30T07:55:16;7.68;;;3.35;;
12024;SDS011;6073;53.230;10.444;2023-09-30T07:57:43;4.75;;;2.70;;
12024;SDS011;6073;53.230;10.444;2023-09-30T08:00:09;5.25;;;2.58;;
12024;SDS011;6073;53.230;10.444;2023-09-30T08:02:39;7.60;;;2.83;;
12024;SDS011;6073;53.230;10.444;2023-09-30T08:05:06;9.82;;;3.20;;
12024;SDS011;6073;53.230;10.444;2023-09-30T08:07:32;9.48;;;2.58;;
12024;SDS011;6073;53.230;10.444;2023-09-30T08:09:58;8.35;;;2.80;;
12024;SDS011;6073;53.230;10.444;2023-09-30T08:12:24;7.43;;;2.72;;
12024;SDS011;6073;53.230;10.444;2023-09-30T08:14:50;6.20;;;2.83;;
12024;SDS011;6073;53.230;10.444;2023-09-30T08:17:16;8.25;;;3.13;;
12024;SDS011;6073;53.230;10.444;2023-09-30T08:19:42;7.88;;;2.33;;
12024;SDS011;6073;53.230;10.444;2023-09-30T08:22:12;8.13;;;2.90;;
12024;SDS011;6073;53.230;10.444;2023-09-30T08:24:39;5.85;;;2.85;;
12024;SDS011;6073;53.230;10.444;2023-09-30T08:27:04;8.35;;;2.65;;
12024;SDS011;6073;53.230;10.444;2023-09-30T08:29:33;5.47;;;2.63;;
12024;SDS011;6073;53.230;10.444;2023-09-30T08:32:01;7.85;;;3.10;;
12024;SDS011;6073;53.230;10.444;2023-09-30T08:34:27;7.57;;;2.78;;
12024;SDS011;6073;53.230;10.444;2023-09-30T08:36:54;6.50;;;2.58;;
12024;SDS011;6073;53.230;10.444;2023-09-30T08:39:19;4.75;;;2.42;;
12024;SDS011;6073;53.230;10.444;2023-09-30T08:41:45;9.20;;;3.15;;
12024;SDS011;6073;53.230;10.444;2023-09-30T08:44:11;8.10;;;2.70;;
12024;SDS011;6073;53.230;10.444;2023-09-30T08:46:37;4.63;;;2.33;;
12024;SDS011;6073;53.230;10.444;2023-09-30T08:49:05;10.60;;;2.83;;
12024;SDS011;6073;53.230;10.444;2023-09-30T08:51:31;8.70;;;2.92;;
12024;SDS011;6073;53.230;10.444;2023-09-30T08:53:57;7.25;;;2.42;;
12024;SDS011;6073;53.230;10.444;2023-09-30T08:56:26;13.00;;;2.97;;
12024;SDS011;6073;53.230;10.444;2023-09-30T08:58:56;6.97;;;2.88;;
12024;SDS011;6073;53.230;10.444;2023-09-30T09:01:24;8.05;;;3.28;;
12024;SDS011;6073;53.230;10.444;2023-09-30T09:03:51;8.85;;;2.63;;
12024;SDS011;6073;53.230;10.444;2023-09-30T09:06:18;8.93;;;2.47;;
12024;SDS011;6073;53.230;10.444;2023-09-30T09:08:47;6.03;;;2.53;;
12024;SDS011;6073;53.230;10.444;2023-09-30T09:11:13;7.10;;;2.88;;
12024;SDS011;6073;53.230;10.444;2023-09-30T09:13:52;4.85;;;2.70;;
12024;SDS011;6073;53.230;10.444;2023-09-30T09:16:21;7.75;;;2.80;;
12024;SDS011;6073;53.230;10.444;2023-09-30T09:18:48;9.57;;;2.40;;
12024;SDS011;6073;53.230;10.444;2023-09-30T09:21:18;8.23;;;2.78;;
12024;SDS011;6073;53.230;10.444;2023-09-30T09:23:53;10.98;;;3.22;;
12024;SDS011;6073;53.230;10.444;2023-09-30T09:26:28;8.10;;;3.20;;
12024;SDS011;6073;53.230;10.444;2023-09-30T09:28:57;7.68;;;2.78;;
12024;SDS011;6073;53.230;10.444;2023-09-30T09:31:25;8.77;;;2.75;;
12024;SDS011;6073;53.230;10.444;2023-09-30T09:33:59;9.77;;;2.95;;
12024;SDS011;6073;53.230;10.444;2023-09-30T09:36:44;8.50;;;3.00;;
12024;SDS011;6073;53.230;10.444;2023-09-30T09:39:13;6.60;;;2.25;;
12024;SDS011;6073;53.230;10.444;2023-09-30T09:41:53;9.27;;;3.28;;
12024;SDS011;6073;53.230;10.444;2023-09-30T09:44:21;6.97;;;3.13;;
12024;SDS011;6073;53.230;10.444;2023-09-30T09:46:47;5.65;;;2.20;;
12024;SDS011;6073;53.230;10.444;2023-09-30T09:49:16;7.22;;;2.22;;
12024;SDS011;6073;53.230;10.444;2023-09-30T09:51:43;6.43;;;2.30;;
12024;SDS011;6073;53.230;10.444;2023-09-30T09:54:13;5.75;;;2.20;;
12024;SDS011;6073;53.230;10.444;2023-09-30T09:56:40;6.75;;;2.25;;
12024;SDS011;6073;53.230;10.444;2023-09-30T09:59:11;6.18;;;1.90;;
12024;SDS011;6073;53.230;10.444;2023-09-30T10:01:37;7.95;;;1.90;;
12024;SDS011;6073;53.230;10.444;2023-09-30T10:04:05;5.38;;;1.67;;
12024;SDS011;6073;53.230;10.444;2023-09-30T10:06:31;4.43;;;1.80;;
12024;SDS011;6073;53.230;10.444;2023-09-30T10:09:03;6.25;;;2.75;;
12024;SDS011;6073;53.230;10.444;2023-09-30T10:11:33;6.95;;;2.10;;
12024;SDS011;6073;53.230;10.444;2023-09-30T10:13:59;5.82;;;2.58;;
12024;SDS011;6073;53.230;10.444;2023-09-30T10:19:12;6.55;;;2.30;;
12024;SDS011;6073;53.230;10.444;2023-09-30T10:21:38;7.07;;;2.35;;
12024;SDS011;6073;53.230;10.444;2023-09-30T10:29:56;6.35;;;1.92;;
12024;SDS011;6073;53.230;10.444;2023-09-30T10:38:35;6.53;;;2.05;;
12024;SDS011;6073;53.230;10.444;2023-09-30T10:40:48;8.55;;;2.55;;
12024;SDS011;6073;53.230;10.444;2023-09-30T10:45:56;7.80;;;2.22;;
12024;SDS011;6073;53.230;10.444;2023-09-30T10:51:00;4.25;;;1.90;;
12024;SDS011;6073;53.230;10.444;2023-09-30T10:53:40;8.88;;;2.55;;
12024;SDS011;6073;53.230;10.444;2023-09-30T10:56:07;4.90;;;1.73;;
12024;SDS011;6073;53.230;10.444;2023-09-30T10:58:39;6.07;;;2.10;;
12024;SDS011;6073;53.230;10.444;2023-09-30T11:01:05;3.95;;;1.77;;
12024;SDS011;6073;53.230;10.444;2023-09-30T11:03:30;6.90;;;1.90;;
12024;SDS011;6073;53.230;10.444;2023-09-30T11:05:56;4.60;;;1.90;;
12024;SDS011;6073;53.230;10.444;2023-09-30T11:08:21;7.40;;;2.25;;
12024;SDS011;6073;53.230;10.444;2023-09-30T11:10:49;7.38;;;1.98;;
12024;SDS011;6073;53.230;10.444;2023-09-30T11:13:16;5.20;;;2.22;;
12024;SDS011;6073;53.230;10.444;2023-09-30T11:15:45;6.70;;;2.35;;
12024;SDS011;6073;53.230;10.444;2023-09-30T11:18:14;4.28;;;2.00;;
12024;SDS011;6073;53.230;10.444;2023-09-30T11:20:41;5.10;;;2.00;;
12024;SDS011;6073;53.230;10.444;2023-09-30T11:23:07;4.82;;;1.95;;
12024;SDS011;6073;53.230;10.444;2023-09-30T11:25:37;6.93;;;1.80;;
12024;SDS011;6073;53.230;10.444;2023-09-30T11:30:58;5.95;;;1.85;;
12024;SDS011;6073;53.230;10.444;2023-09-30T11:33:24;5.75;;;1.58;;
12024;SDS011;6073;53.230;10.444;2023-09-30T11:36:00;8.15;;;2.60;;
12024;SDS011;6073;53.230;10.444;2023-09-30T11:38:28;5.47;;;2.05;;
12024;SDS011;6073;53.230;10.444;2023-09-30T11:40:57;4.35;;;1.83;;
12024;SDS011;6073;53.230;10.444;2023-09-30T11:43:59;6.57;;;1.80;;
12024;SDS011;6073;53.230;10.444;2023-09-30T11:46:26;6.47;;;2.10;;
12024;SDS011;6073;53.230;10.444;2023-09-30T11:49:02;5.80;;;2.47;;
12024;SDS011;6073;53.230;10.444;2023-09-30T11:51:30;5.65;;;1.75;;
12024;SDS011;6073;53.230;10.444;2023-09-30T11:54:06;4.70;;;1.73;;
12024;SDS011;6073;53.230;10.444;2023-09-30T11:56:35;4.07;;;2.17;;
12024;SDS011;6073;53.230;10.444;2023-09-30T11:59:02;5.70;;;2.20;;
12024;SDS011;6073;53.230;10.444;2023-09-30T12:01:29;5.45;;;1.70;;
12024;SDS011;6073;53.230;10.444;2023-09-30T12:03:57;6.25;;;1.83;;
12024;SDS011;6073;53.230;10.444;2023-09-30T12:06:23;5.38;;;1.80;;
12024;SDS011;6073;53.230;10.444;2023-09-30T12:08:48;3.15;;;2.03;;
12024;SDS011;6073;53.230;10.444;2023-09-30T12:11:16;6.72;;;1.90;;
12024;SDS011;6073;53.230;10.444;2023-09-30T12:13:45;4.65;;;1.98;;
12024;SDS011;6073;53.230;10.444;2023-09-30T12:16:14;4.22;;;2.03;;
12024;SDS011;6073;53.230;10.444;2023-09-30T12:18:40;6.60;;;2.10;;
12024;SDS011;6073;53.230;10.444;2023-09-30T12:21:06;5.47;;;2.08;;
12024;SDS011;6073;53.230;10.444;2023-09-30T12:23:35;5.50;;;1.83;;
12024;SDS011;6073;53.230;10.444;2023-09-30T12:26:01;3.30;;;1.90;;
12024;SDS011;6073;53.230;10.444;2023-09-30T12:28:30;5.70;;;2.17;;
12024;SDS011;6073;53.230;10.444;2023-09-30T12:30:57;4.35;;;2.00;;
12024;SDS011;6073;53.230;10.444;2023-09-30T12:33:23;5.55;;;1.75;;
12024;SDS011;6073;53.230;10.444;2023-09-30T12:35:48;4.32;;;1.90;;
12024;SDS011;6073;53.230;10.444;2023-09-30T12:38:14;3.17;;;1.40;;
12024;SDS011;6073;53.230;10.444;2023-09-30T12:40:41;3.53;;;1.70;;
12024;SDS011;6073;53.230;10.444;2023-09-30T12:43:08;3.88;;;1.40;;
12024;SDS011;6073;53.230;10.444;2023-09-30T12:45:35;4.20;;;1.70;;
12024;SDS011;6073;53.230;10.444;2023-09-30T12:48:01;5.57;;;1.85;;
12024;SDS011;6073;53.230;10.444;2023-09-30T12:50:27;3.85;;;1.30;;
12024;SDS011;6073;53.230;10.444;2023-09-30T12:52:53;6.28;;;2.00;;
12024;SDS011;6073;53.230;10.444;2023-09-30T12:55:18;4.85;;;1.80;;
12024;SDS011;6073;53.230;10.444;2023-09-30T12:57:44;3.70;;;1.80;;
12024;SDS011;6073;53.230;10.444;2023-09-30T13:00:09;4.97;;;2.05;;
12024;SDS011;6073;53.230;10.444;2023-09-30T13:02:35;7.00;;;1.88;;
12024;SDS011;6073;53.230;10.444;2023-09-30T13:05:01;5.60;;;2.17;;
12024;SDS011;6073;53.230;10.444;2023-09-30T13:07:27;5.05;;;1.95;;
12024;SDS011;6073;53.230;10.444;2023-09-30T13:09:52;3.80;;;1.48;;
12024;SDS011;6073;53.230;10.444;2023-09-30T13:12:18;6.15;;;1.65;;
12024;SDS011;6073;53.230;10.444;2023-09-30T13:14:43;2.72;;;1.58;;
12024;SDS011;6073;53.230;10.444;2023-09-30T13:17:09;4.00;;;2.00;;
12024;SDS011;6073;53.230;10.444;2023-09-30T13:19:39;4.65;;;1.70;;
12024;SDS011;6073;53.230;10.444;2023-09-30T13:22:04;2.22;;;1.30;;
12024;SDS011;6073;53.230;10.444;2023-09-30T13:24:30;3.55;;;1.42;;
12024;SDS011;6073;53.230;10.444;2023-09-30T13:26:55;4.55;;;1.60;;
12024;SDS011;6073;53.230;10.444;2023-09-30T13:29:21;2.80;;;1.42;;
12024;SDS011;6073;53.230;10.444;2023-09-30T13:31:46;2.88;;;1.45;;
12024;SDS011;6073;53.230;10.444;2023-09-30T13:34:12;3.22;;;2.00;;
12024;SDS011;6073;53.230;10.444;2023-09-30T13:36:38;5.55;;;1.52;;
12024;SDS011;6073;53.230;10.444;2023-09-30T13:39:03;5.07;;;1.50;;
12024;SDS011;6073;53.230;10.444;2023-09-30T13:41:33;5.10;;;1.27;;
12024;SDS011;6073;53.230;10.444;2023-09-30T13:43:59;5.75;;;1.80;;
12024;SDS011;6073;53.230;10.444;2023-09-30T13:46:25;3.75;;;1.45;;
12024;SDS011;6073;53.230;10.444;2023-09-30T13:48:53;3.40;;;1.20;;
12024;SDS011;6073;53.230;10.444;2023-09-30T13:51:18;4.07;;;2.25;;
12024;SDS011;6073;53.230;10.444;2023-09-30T13:53:44;4.95;;;2.00;;
12024;SDS011;6073;53.230;10.444;2023-09-30T13:56:09;6.97;;;1.60;;
12024;SDS011;6073;53.230;10.444;2023-09-30T13:58:35;3.78;;;1.25;;
12024;SDS011;6073;53.230;10.444;2023-09-30T14:01:02;4.70;;;1.23;;
12024;SDS011;6073;53.230;10.444;2023-09-30T14:03:27;3.42;;;1.70;;
12024;SDS011;6073;53.230;10.444;2023-09-30T14:05:53;3.58;;;1.88;;
12024;SDS011;6073;53.230;10.444;2023-09-30T14:08:19;3.45;;;1.67;;
12024;SDS011;6073;53.230;10.444;2023-09-30T14:10:44;3.28;;;1.70;;
12024;SDS011;6073;53.230;10.444;2023-09-30T14:13:10;6.47;;;2.03;;
12024;SDS011;6073;53.230;10.444;2023-09-30T14:15:36;3.33;;;1.58;;
12024;SDS011;6073;53.230;10.444;2023-09-30T14:18:02;2.95;;;1.30;;
12024;SDS011;6073;53.230;10.444;2023-09-30T14:20:29;5.65;;;3.17;;
12024;SDS011;6073;53.230;10.444;2023-09-30T14:22:55;4.70;;;1.75;;
12024;SDS011;6073;53.230;10.444;2023-09-30T14:25:21;7.32;;;4.50;;
12024;SDS011;6073;53.230;10.444;2023-09-30T14:27:47;6.68;;;3.08;;
12024;SDS011;6073;53.230;10.444;2023-09-30T14:30:13;3.38;;;1.95;;
12024;SDS011;6073;53.230;10.444;2023-09-30T14:32:39;4.80;;;1.90;;
12024;SDS011;6073;53.230;10.444;2023-09-30T14:35:05;4.05;;;1.52;;
12024;SDS011;6073;53.230;10.444;2023-09-30T14:37:31;7.07;;;2.25;;
12024;SDS011;6073;53.230;10.444;2023-09-30T14:39:57;3.35;;;1.85;;
12024;SDS011;6073;53.230;10.444;2023-09-30T14:42:22;5.22;;;2.00;;
12024;SDS011;6073;53.230;10.444;2023-09-30T14:44:48;3.00;;;1.30;;
12024;SDS011;6073;53.230;10.444;2023-09-30T14:47:14;4.50;;;1.80;;
12024;SDS011;6073;53.230;10.444;2023-09-30T14:49:40;4.70;;;2.38;;
12024;SDS011;6073;53.230;10.444;2023-09-30T14:52:06;4.00;;;1.35;;
12024;SDS011;6073;53.230;10.444;2023-09-30T14:54:32;8.30;;;3.75;;
12024;SDS011;6073;53.230;10.444;2023-09-30T14:56:57;5.28;;;1.90;;
12024;SDS011;6073;53.230;10.444;2023-09-30T14:59:23;6.22;;;1.92;;
12024;SDS011;6073;53.230;10.444;2023-09-30T15:01:49;3.83;;;1.83;;
12024;SDS011;6073;53.230;10.444;2023-09-30T15:04:14;4.78;;;1.42;;